sensor_id;sensor_type;location;lat;lon;timestamp;P1;durP1;ratioP1;P2;durP2;ratioP2
4597;SDS011;62772;48.646;8.906;2023-11-19T00:01:33;8.93;;;5.13;;
4597;SDS011;62772;48.646;8.906;2023-11-19T00:06:33;6.50;;;4.20;;
4597;SDS011;62772;48.646;8.906;2023-11-19T00:11:34;6.80;;;4.53;;
4597;SDS011;62772;48.646;8.906;2023-11-19T00:16:34;7.40;;;4.70;;
4597;SDS011;62772;48.646;8.906;2023-11-19T00:21:35;7.67;;;4.67;;
4597;SDS011;62772;48.646;8.906;2023-11-19T00:26:36;6.10;;;4.40;;
4597;SDS011;62772;48.646;8.906;2023-11-19T00:31:37;6.27;;;4.03;;
4597;SDS011;62772;48.646;8.906;2023-11-19T00:36:38;7.60;;;5.03;;
4597;SDS011;62772;48.646;8.906;2023-11-19T00:41:39;7.37;;;4.40;;
4597;SDS011;62772;48.646;8.906;2023-11-19T00:46:40;7.17;;;4.60;;
4597;SDS011;62772;48.646;8.906;2023-11-19T00:51:40;5.90;;;4.23;;
4597;SDS011;62772;48.646;8.906;2023-11-19T00:56:41;7.30;;;5.23;;
4597;SDS011;62772;48.646;8.906;2023-11-19T01:01:41;7.30;;;5.20;;
4597;SDS011;62772;48.646;8.906;2023-11-19T01:06:42;8.03;;;4.53;;
4597;SDS011;62772;48.646;8.906;2023-11-19T01:11:42;6.97;;;4.67;;
4597;SDS011;62772;48.646;8.906;2023-11-19T01:16:43;5.10;;;3.97;;
4597;SDS011;62772;48.646;8.906;2023-11-19T01:21:44;5.67;;;4.17;;
4597;SDS011;62772;48.646;8.906;2023-11-19T01:26:45;5.37;;;3.90;;
4597;SDS011;62772;48.646;8.906;2023-11-19T01:31:47;6.53;;;4.17;;
4597;SDS011;62772;48.646;8.906;2023-11-19T01:36:47;5.27;;;3.60;;
4597;SDS011;62772;48.646;8.906;2023-11-19T01:41:49;5.37;;;3.67;;
4597;SDS011;62772;48.646;8.906;2023-11-19T01:46:49;5.73;;;3.43;;
4597;SDS011;62772;48.646;8.906;2023-11-19T01:51:50;4.50;;;3.70;;
4597;SDS011;62772;48.646;8.906;2023-11-19T01:56:50;4.60;;;3.30;;
4597;SDS011;62772;48.646;8.906;2023-11-19T02:01:57;5.43;;;3.70;;
4597;SDS011;62772;48.646;8.906;2023-11-19T02:06:58;4.63;;;2.90;;
4597;SDS011;62772;48.646;8.906;2023-11-19T02:11:59;4.40;;;2.77;;
4597;SDS011;62772;48.646;8.906;2023-11-19T02:17:00;3.60;;;2.60;;
4597;SDS011;62772;48.646;8.906;2023-11-19T02:22:00;6.47;;;2.40;;
4597;SDS011;62772;48.646;8.906;2023-11-19T02:27:08;3.10;;;1.93;;
4597;SDS011;62772;48.646;8.906;2023-11-19T02:32:16;2.40;;;1.63;;
4597;SDS011;62772;48.646;8.906;2023-11-19T02:37:16;1.80;;;1.00;;
4597;SDS011;62772;48.646;8.906;2023-11-19T02:42:19;1.70;;;1.17;;
4597;SDS011;62772;48.646;8.906;2023-11-19T02:47:19;2.00;;;1.07;;
4597;SDS011;62772;48.646;8.906;2023-11-19T02:52:21;1.70;;;1.10;;
4597;SDS011;62772;48.646;8.906;2023-11-19T02:57:22;2.07;;;1.20;;
4597;SDS011;62772;48.646;8.906;2023-11-19T03:02:22;1.70;;;1.00;;
4597;SDS011;62772;48.646;8.906;2023-11-19T03:07:24;1.70;;;1.00;;
4597;SDS011;62772;48.646;8.906;2023-11-19T03:12:25;8.57;;;1.30;;
4597;SDS011;62772;48.646;8.906;2023-11-19T03:17:26;1.70;;;0.93;;
4597;SDS011;62772;48.646;8.906;2023-11-19T03:22:27;2.40;;;1.30;;
4597;SDS011;62772;48.646;8.906;2023-11-19T03:27:27;2.03;;;1.23;;
4597;SDS011;62772;48.646;8.906;2023-11-19T03:32:28;2.00;;;1.30;;
4597;SDS011;62772;48.646;8.906;2023-11-19T03:37:29;3.50;;;1.10;;
4597;SDS011;62772;48.646;8.906;2023-11-19T03:42:29;2.00;;;1.20;;
4597;SDS011;62772;48.646;8.906;2023-11-19T03:47:33;2.23;;;1.10;;
4597;SDS011;62772;48.646;8.906;2023-11-19T03:52:33;4.10;;;1.33;;
4597;SDS011;62772;48.646;8.906;2023-11-19T03:57:34;2.07;;;1.30;;
4597;SDS011;62772;48.646;8.906;2023-11-19T04:02:35;1.80;;;1.10;;
4597;SDS011;62772;48.646;8.906;2023-11-19T04:07:36;1.80;;;1.10;;
4597;SDS011;62772;48.646;8.906;2023-11-19T04:12:37;1.90;;;1.20;;
4597;SDS011;62772;48.646;8.906;2023-11-19T04:17:38;1.90;;;1.13;;
4597;SDS011;62772;48.646;8.906;2023-11-19T04:22:38;2.20;;;1.17;;
4597;SDS011;62772;48.646;8.906;2023-11-19T04:27:39;1.70;;;1.00;;
4597;SDS011;62772;48.646;8.906;2023-11-19T04:32:39;2.00;;;1.20;;
4597;SDS011;62772;48.646;8.906;2023-11-19T04:37:41;1.87;;;1.07;;
4597;SDS011;62772;48.646;8.906;2023-11-19T04:42:42;1.80;;;1.20;;
4597;SDS011;62772;48.646;8.906;2023-11-19T04:47:42;1.97;;;1.20;;
4597;SDS011;62772;48.646;8.906;2023-11-19T04:52:43;1.90;;;1.30;;
4597;SDS011;62772;48.646;8.906;2023-11-19T04:57:46;2.40;;;1.13;;
4597;SDS011;62772;48.646;8.906;2023-11-19T05:02:47;2.83;;;1.20;;
4597;SDS011;62772;48.646;8.906;2023-11-19T05:07:48;1.80;;;1.10;;
4597;SDS011;62772;48.646;8.906;2023-11-19T05:12:48;2.10;;;1.20;;
4597;SDS011;62772;48.646;8.906;2023-11-19T05:17:50;2.00;;;1.30;;
4597;SDS011;62772;48.646;8.906;2023-11-19T05:22:50;2.97;;;1.40;;
4597;SDS011;62772;48.646;8.906;2023-11-19T05:27:52;4.43;;;1.90;;
4597;SDS011;62772;48.646;8.906;2023-11-19T05:32:52;1.90;;;1.10;;
4597;SDS011;62772;48.646;8.906;2023-11-19T05:37:53;3.20;;;1.60;;
4597;SDS011;62772;48.646;8.906;2023-11-19T05:42:53;2.73;;;1.40;;
4597;SDS011;62772;48.646;8.906;2023-11-19T05:47:54;3.00;;;2.00;;
4597;SDS011;62772;48.646;8.906;2023-11-19T05:52:54;3.33;;;1.97;;
4597;SDS011;62772;48.646;8.906;2023-11-19T05:57:55;3.17;;;1.73;;
4597;SDS011;62772;48.646;8.906;2023-11-19T06:02:55;3.20;;;1.50;;
4597;SDS011;62772;48.646;8.906;2023-11-19T06:07:55;2.33;;;1.50;;
4597;SDS011;62772;48.646;8.906;2023-11-19T06:12:58;5.10;;;1.67;;
4597;SDS011;62772;48.646;8.906;2023-11-19T06:17:59;5.30;;;1.87;;
4597;SDS011;62772;48.646;8.906;2023-11-19T06:23:01;3.20;;;1.90;;
4597;SDS011;62772;48.646;8.906;2023-11-19T06:28:02;3.10;;;2.10;;
4597;SDS011;62772;48.646;8.906;2023-11-19T06:33:03;4.33;;;2.60;;
4597;SDS011;62772;48.646;8.906;2023-11-19T06:38:04;4.10;;;2.33;;
4597;SDS011;62772;48.646;8.906;2023-11-19T06:43:04;4.83;;;2.77;;
4597;SDS011;62772;48.646;8.906;2023-11-19T06:48:05;2.90;;;2.10;;
4597;SDS011;62772;48.646;8.906;2023-11-19T06:53:05;5.43;;;2.93;;
4597;SDS011;62772;48.646;8.906;2023-11-19T06:58:10;5.23;;;2.23;;
4597;SDS011;62772;48.646;8.906;2023-11-19T07:03:12;3.50;;;2.00;;
4597;SDS011;62772;48.646;8.906;2023-11-19T07:08:12;4.70;;;2.10;;
4597;SDS011;62772;48.646;8.906;2023-11-19T07:13:13;3.80;;;2.50;;
4597;SDS011;62772;48.646;8.906;2023-11-19T07:18:13;4.07;;;2.53;;
4597;SDS011;62772;48.646;8.906;2023-11-19T07:23:14;3.83;;;2.20;;
4597;SDS011;62772;48.646;8.906;2023-11-19T07:28:17;3.43;;;2.37;;
4597;SDS011;62772;48.646;8.906;2023-11-19T07:33:18;2.70;;;1.83;;
4597;SDS011;62772;48.646;8.906;2023-11-19T07:38:18;8.50;;;4.97;;
4597;SDS011;62772;48.646;8.906;2023-11-19T07:43:19;4.70;;;3.13;;
4597;SDS011;62772;48.646;8.906;2023-11-19T07:48:19;4.67;;;3.40;;
4597;SDS011;62772;48.646;8.906;2023-11-19T07:53:24;6.70;;;3.10;;
4597;SDS011;62772;48.646;8.906;2023-11-19T07:58:25;8.20;;;4.57;;
4597;SDS011;62772;48.646;8.906;2023-11-19T08:03:25;6.80;;;4.67;;
4597;SDS011;62772;48.646;8.906;2023-11-19T08:08:26;4.10;;;2.80;;
4597;SDS011;62772;48.646;8.906;2023-11-19T08:13:26;4.40;;;2.83;;
4597;SDS011;62772;48.646;8.906;2023-11-19T08:18:27;4.73;;;2.37;;
4597;SDS011;62772;48.646;8.906;2023-11-19T08:23:27;4.20;;;3.03;;
4597;SDS011;62772;48.646;8.906;2023-11-19T08:28:28;6.17;;;3.57;;
4597;SDS011;62772;48.646;8.906;2023-11-19T08:33:29;6.90;;;3.70;;
4597;SDS011;62772;48.646;8.906;2023-11-19T08:38:30;9.67;;;3.17;;
4597;SDS011;62772;48.646;8.906;2023-11-19T08:43:30;5.40;;;2.93;;
4597;SDS011;62772;48.646;8.906;2023-11-19T08:48:31;5.27;;;3.53;;
4597;SDS011;62772;48.646;8.906;2023-11-19T08:53:32;3.53;;;2.47;;
4597;SDS011;62772;48.646;8.906;2023-11-19T08:58:32;4.50;;;2.83;;
4597;SDS011;62772;48.646;8.906;2023-11-19T09:03:33;6.53;;;3.37;;
4597;SDS011;62772;48.646;8.906;2023-11-19T09:08:33;4.60;;;2.93;;
4597;SDS011;62772;48.646;8.906;2023-11-19T09:13:34;6.60;;;3.30;;
4597;SDS011;62772;48.646;8.906;2023-11-19T09:18:34;6.33;;;3.80;;
4597;SDS011;62772;48.646;8.906;2023-11-19T09:23:35;4.57;;;3.00;;
4597;SDS011;62772;48.646;8.906;2023-11-19T09:28:39;4.40;;;3.07;;
4597;SDS011;62772;48.646;8.906;2023-11-19T09:33:39;5.23;;;3.57;;
4597;SDS011;62772;48.646;8.906;2023-11-19T09:38:40;4.40;;;3.10;;
4597;SDS011;62772;48.646;8.906;2023-11-19T09:43:41;4.10;;;2.60;;
4597;SDS011;62772;48.646;8.906;2023-11-19T09:48:42;4.37;;;2.60;;
4597;SDS011;62772;48.646;8.906;2023-11-19T09:53:44;4.23;;;2.57;;
4597;SDS011;62772;48.646;8.906;2023-11-19T09:58:45;5.67;;;2.70;;
4597;SDS011;62772;48.646;8.906;2023-11-19T10:03:45;6.03;;;3.50;;
4597;SDS011;62772;48.646;8.906;2023-11-19T10:08:47;4.13;;;2.57;;
4597;SDS011;62772;48.646;8.906;2023-11-19T10:13:48;3.20;;;2.00;;
4597;SDS011;62772;48.646;8.906;2023-11-19T10:18:49;3.93;;;2.37;;
4597;SDS011;62772;48.646;8.906;2023-11-19T10:23:56;9.03;;;2.40;;
4597;SDS011;62772;48.646;8.906;2023-11-19T10:28:58;2.77;;;1.70;;
4597;SDS011;62772;48.646;8.906;2023-11-19T10:33:59;3.03;;;1.50;;
4597;SDS011;62772;48.646;8.906;2023-11-19T10:38:59;2.90;;;1.50;;
4597;SDS011;62772;48.646;8.906;2023-11-19T10:44:00;2.97;;;1.67;;
4597;SDS011;62772;48.646;8.906;2023-11-19T10:49:00;1.90;;;1.20;;
4597;SDS011;62772;48.646;8.906;2023-11-19T10:54:04;2.30;;;1.40;;
4597;SDS011;62772;48.646;8.906;2023-11-19T10:59:06;2.60;;;1.40;;
4597;SDS011;62772;48.646;8.906;2023-11-19T11:04:11;5.23;;;1.60;;
4597;SDS011;62772;48.646;8.906;2023-11-19T11:09:15;2.40;;;1.30;;
4597;SDS011;62772;48.646;8.906;2023-11-19T11:14:16;2.97;;;1.50;;
4597;SDS011;62772;48.646;8.906;2023-11-19T11:19:20;4.67;;;2.70;;
4597;SDS011;62772;48.646;8.906;2023-11-19T11:35:41;9.87;;;4.60;;
4597;SDS011;62772;48.646;8.906;2023-11-19T11:56:43;2.93;;;1.70;;
4597;SDS011;62772;48.646;8.906;2023-11-19T12:02:02;2.77;;;1.70;;
4597;SDS011;62772;48.646;8.906;2023-11-19T12:07:22;3.00;;;1.60;;
4597;SDS011;62772;48.646;8.906;2023-11-19T12:12:26;2.67;;;1.63;;
4597;SDS011;62772;48.646;8.906;2023-11-19T12:22:35;3.00;;;1.53;;
4597;SDS011;62772;48.646;8.906;2023-11-19T12:27:44;2.63;;;1.50;;
4597;SDS011;62772;48.646;8.906;2023-11-19T12:32:47;3.50;;;1.53;;
4597;SDS011;62772;48.646;8.906;2023-11-19T12:37:48;2.80;;;1.30;;
4597;SDS011;62772;48.646;8.906;2023-11-19T12:42:50;4.73;;;2.50;;
4597;SDS011;62772;48.646;8.906;2023-11-19T12:48:08;2.97;;;1.30;;
4597;SDS011;62772;48.646;8.906;2023-11-19T12:53:11;4.43;;;2.40;;
4597;SDS011;62772;48.646;8.906;2023-11-19T12:58:34;2.60;;;1.60;;
4597;SDS011;62772;48.646;8.906;2023-11-19T13:03:39;3.93;;;1.73;;
4597;SDS011;62772;48.646;8.906;2023-11-19T13:08:40;4.60;;;2.00;;
4597;SDS011;62772;48.646;8.906;2023-11-19T13:13:57;3.50;;;1.70;;
4597;SDS011;62772;48.646;8.906;2023-11-19T13:18:59;2.73;;;1.40;;
4597;SDS011;62772;48.646;8.906;2023-11-19T13:24:00;2.37;;;1.43;;
4597;SDS011;62772;48.646;8.906;2023-11-19T13:29:01;3.93;;;1.70;;
4597;SDS011;62772;48.646;8.906;2023-11-19T13:34:01;2.87;;;1.30;;
4597;SDS011;62772;48.646;8.906;2023-11-19T13:39:02;2.20;;;1.20;;
4597;SDS011;62772;48.646;8.906;2023-11-19T13:44:03;2.77;;;1.37;;
4597;SDS011;62772;48.646;8.906;2023-11-19T13:49:04;2.07;;;1.30;;
4597;SDS011;62772;48.646;8.906;2023-11-19T13:54:05;3.17;;;1.67;;
4597;SDS011;62772;48.646;8.906;2023-11-19T13:59:05;4.60;;;1.70;;
4597;SDS011;62772;48.646;8.906;2023-11-19T14:04:09;5.63;;;1.30;;
4597;SDS011;62772;48.646;8.906;2023-11-19T14:09:10;4.33;;;2.03;;
4597;SDS011;62772;48.646;8.906;2023-11-19T14:14:10;4.00;;;2.40;;
4597;SDS011;62772;48.646;8.906;2023-11-19T14:19:11;4.57;;;2.30;;
4597;SDS011;62772;48.646;8.906;2023-11-19T14:24:11;3.00;;;1.77;;
4597;SDS011;62772;48.646;8.906;2023-11-19T14:29:12;2.33;;;1.40;;
4597;SDS011;62772;48.646;8.906;2023-11-19T14:34:13;5.37;;;3.07;;
4597;SDS011;62772;48.646;8.906;2023-11-19T14:39:13;2.73;;;1.70;;
4597;SDS011;62772;48.646;8.906;2023-11-19T14:44:14;3.10;;;1.67;;
4597;SDS011;62772;48.646;8.906;2023-11-19T14:49:14;3.10;;;1.70;;
4597;SDS011;62772;48.646;8.906;2023-11-19T14:54:15;2.30;;;1.50;;
4597;SDS011;62772;48.646;8.906;2023-11-19T14:59:16;6.27;;;1.93;;
4597;SDS011;62772;48.646;8.906;2023-11-19T15:04:16;3.50;;;1.30;;
4597;SDS011;62772;48.646;8.906;2023-11-19T15:09:17;3.33;;;1.47;;
4597;SDS011;62772;48.646;8.906;2023-11-19T15:14:18;3.90;;;1.83;;
4597;SDS011;62772;48.646;8.906;2023-11-19T15:19:19;6.30;;;1.93;;
4597;SDS011;62772;48.646;8.906;2023-11-19T15:24:20;5.73;;;3.07;;
4597;SDS011;62772;48.646;8.906;2023-11-19T15:29:20;7.63;;;3.30;;
4597;SDS011;62772;48.646;8.906;2023-11-19T15:34:21;2.63;;;1.70;;
4597;SDS011;62772;48.646;8.906;2023-11-19T15:39:22;7.33;;;3.77;;
4597;SDS011;62772;48.646;8.906;2023-11-19T15:44:22;7.00;;;3.70;;
4597;SDS011;62772;48.646;8.906;2023-11-19T15:49:24;7.53;;;4.20;;
4597;SDS011;62772;48.646;8.906;2023-11-19T15:54:24;5.70;;;3.00;;
4597;SDS011;62772;48.646;8.906;2023-11-19T15:59:25;12.20;;;6.60;;
4597;SDS011;62772;48.646;8.906;2023-11-19T16:04:25;9.30;;;5.57;;
4597;SDS011;62772;48.646;8.906;2023-11-19T16:09:26;8.27;;;5.50;;
4597;SDS011;62772;48.646;8.906;2023-11-19T16:14:28;25.67;;;12.27;;
4597;SDS011;62772;48.646;8.906;2023-11-19T16:19:29;14.13;;;6.30;;
4597;SDS011;62772;48.646;8.906;2023-11-19T16:24:29;8.80;;;5.17;;
4597;SDS011;62772;48.646;8.906;2023-11-19T16:29:30;6.60;;;3.60;;
4597;SDS011;62772;48.646;8.906;2023-11-19T16:34:30;5.87;;;3.17;;
4597;SDS011;62772;48.646;8.906;2023-11-19T16:39:31;4.03;;;2.53;;
4597;SDS011;62772;48.646;8.906;2023-11-19T16:44:32;4.40;;;2.50;;
4597;SDS011;62772;48.646;8.906;2023-11-19T16:49:33;7.10;;;2.67;;
4597;SDS011;62772;48.646;8.906;2023-11-19T16:54:33;4.90;;;2.63;;
4597;SDS011;62772;48.646;8.906;2023-11-19T16:59:34;5.20;;;2.43;;
4597;SDS011;62772;48.646;8.906;2023-11-19T17:04:34;5.00;;;2.97;;
4597;SDS011;62772;48.646;8.906;2023-11-19T17:09:35;4.90;;;2.60;;
4597;SDS011;62772;48.646;8.906;2023-11-19T17:14:35;5.40;;;2.10;;
4597;SDS011;62772;48.646;8.906;2023-11-19T17:19:36;6.17;;;3.17;;
4597;SDS011;62772;48.646;8.906;2023-11-19T17:24:37;6.70;;;2.90;;
4597;SDS011;62772;48.646;8.906;2023-11-19T17:29:39;5.33;;;3.63;;
4597;SDS011;62772;48.646;8.906;2023-11-19T17:34:39;8.83;;;3.17;;
4597;SDS011;62772;48.646;8.906;2023-11-19T17:39:40;8.53;;;4.60;;
4597;SDS011;62772;48.646;8.906;2023-11-19T17:44:42;6.80;;;3.80;;
4597;SDS011;62772;48.646;8.906;2023-11-19T17:49:42;7.10;;;4.17;;
4597;SDS011;62772;48.646;8.906;2023-11-19T17:54:42;7.87;;;4.40;;
4597;SDS011;62772;48.646;8.906;2023-11-19T17:59:43;8.70;;;4.70;;
4597;SDS011;62772;48.646;8.906;2023-11-19T18:04:47;9.03;;;5.53;;
4597;SDS011;62772;48.646;8.906;2023-11-19T18:09:50;19.37;;;11.00;;
4597;SDS011;62772;48.646;8.906;2023-11-19T18:14:50;9.50;;;5.50;;
4597;SDS011;62772;48.646;8.906;2023-11-19T18:19:51;11.10;;;5.00;;
4597;SDS011;62772;48.646;8.906;2023-11-19T18:24:51;8.07;;;4.60;;
4597;SDS011;62772;48.646;8.906;2023-11-19T18:29:52;9.90;;;4.70;;
4597;SDS011;62772;48.646;8.906;2023-11-19T18:34:53;8.20;;;4.00;;
4597;SDS011;62772;48.646;8.906;2023-11-19T18:39:54;6.70;;;3.90;;
4597;SDS011;62772;48.646;8.906;2023-11-19T18:44:55;7.60;;;4.17;;
4597;SDS011;62772;48.646;8.906;2023-11-19T18:49:55;10.37;;;3.70;;
4597;SDS011;62772;48.646;8.906;2023-11-19T18:54:55;5.23;;;3.40;;
4597;SDS011;62772;48.646;8.906;2023-11-19T18:59:56;7.90;;;3.80;;
4597;SDS011;62772;48.646;8.906;2023-11-19T19:04:57;8.60;;;2.80;;
4597;SDS011;62772;48.646;8.906;2023-11-19T19:09:57;6.30;;;2.90;;
4597;SDS011;62772;48.646;8.906;2023-11-19T19:14:59;4.27;;;2.93;;
4597;SDS011;62772;48.646;8.906;2023-11-19T19:20:00;4.70;;;2.70;;
4597;SDS011;62772;48.646;8.906;2023-11-19T19:25:01;4.97;;;2.80;;
4597;SDS011;62772;48.646;8.906;2023-11-19T19:30:01;7.73;;;2.30;;
4597;SDS011;62772;48.646;8.906;2023-11-19T19:35:02;6.20;;;3.13;;
4597;SDS011;62772;48.646;8.906;2023-11-19T19:40:02;8.17;;;2.30;;
4597;SDS011;62772;48.646;8.906;2023-11-19T19:45:04;3.60;;;2.10;;
4597;SDS011;62772;48.646;8.906;2023-11-19T19:50:06;4.10;;;2.53;;
4597;SDS011;62772;48.646;8.906;2023-11-19T19:55:10;5.43;;;2.90;;
4597;SDS011;62772;48.646;8.906;2023-11-19T20:00:12;7.77;;;2.57;;
4597;SDS011;62772;48.646;8.906;2023-11-19T20:05:14;6.07;;;3.60;;
4597;SDS011;62772;48.646;8.906;2023-11-19T20:10:15;5.63;;;3.17;;
4597;SDS011;62772;48.646;8.906;2023-11-19T20:15:15;6.77;;;2.50;;
4597;SDS011;62772;48.646;8.906;2023-11-19T20:20:20;4.63;;;2.43;;
4597;SDS011;62772;48.646;8.906;2023-11-19T20:25:20;3.33;;;2.27;;
4597;SDS011;62772;48.646;8.906;2023-11-19T20:30:21;4.90;;;3.00;;
4597;SDS011;62772;48.646;8.906;2023-11-19T20:35:21;7.93;;;3.10;;
4597;SDS011;62772;48.646;8.906;2023-11-19T20:40:22;5.63;;;2.93;;
4597;SDS011;62772;48.646;8.906;2023-11-19T20:45:22;10.07;;;2.80;;
4597;SDS011;62772;48.646;8.906;2023-11-19T20:50:27;3.80;;;2.10;;
4597;SDS011;62772;48.646;8.906;2023-11-19T20:55:28;3.70;;;2.30;;
4597;SDS011;62772;48.646;8.906;2023-11-19T21:00:28;4.83;;;2.20;;
4597;SDS011;62772;48.646;8.906;2023-11-19T21:05:29;8.10;;;2.23;;
4597;SDS011;62772;48.646;8.906;2023-11-19T21:10:30;5.83;;;2.30;;
4597;SDS011;62772;48.646;8.906;2023-11-19T21:15:30;8.60;;;2.70;;
4597;SDS011;62772;48.646;8.906;2023-11-19T21:20:31;12.93;;;2.90;;
4597;SDS011;62772;48.646;8.906;2023-11-19T21:25:31;7.83;;;2.50;;
4597;SDS011;62772;48.646;8.906;2023-11-19T21:30:32;11.27;;;3.37;;
4597;SDS011;62772;48.646;8.906;2023-11-19T21:35:33;7.10;;;3.00;;
4597;SDS011;62772;48.646;8.906;2023-11-19T21:40:34;17.43;;;3.50;;
4597;SDS011;62772;48.646;8.906;2023-11-19T21:45:34;9.23;;;3.10;;
4597;SDS011;62772;48.646;8.906;2023-11-19T21:50:35;5.87;;;2.70;;
4597;SDS011;62772;48.646;8.906;2023-11-19T21:55:36;8.70;;;2.97;;
4597;SDS011;62772;48.646;8.906;2023-11-19T22:00:36;9.37;;;3.47;;
4597;SDS011;62772;48.646;8.906;2023-11-19T22:05:37;5.57;;;2.30;;
4597;SDS011;62772;48.646;8.906;2023-11-19T22:10:37;4.50;;;2.40;;
4597;SDS011;62772;48.646;8.906;2023-11-19T22:15:38;5.80;;;2.20;;
4597;SDS011;62772;48.646;8.906;2023-11-19T22:20:38;10.53;;;3.00;;
4597;SDS011;62772;48.646;8.906;2023-11-19T22:25:38;7.67;;;2.40;;
4597;SDS011;62772;48.646;8.906;2023-11-19T22:30:39;12.27;;;3.53;;
4597;SDS011;62772;48.646;8.906;2023-11-19T22:35:39;6.97;;;2.50;;
4597;SDS011;62772;48.646;8.906;2023-11-19T22:40:40;8.47;;;2.50;;
4597;SDS011;62772;48.646;8.906;2023-11-19T22:45:40;10.20;;;2.93;;
4597;SDS011;62772;48.646;8.906;2023-11-19T22:50:40;7.93;;;3.67;;
4597;SDS011;62772;48.646;8.906;2023-11-19T22:55:41;12.87;;;2.80;;
4597;SDS011;62772;48.646;8.906;2023-11-19T23:00:41;10.60;;;2.60;;
4597;SDS011;62772;48.646;8.906;2023-11-19T23:05:42;6.60;;;2.60;;
4597;SDS011;62772;48.646;8.906;2023-11-19T23:10:42;10.03;;;3.50;;
4597;SDS011;62772;48.646;8.906;2023-11-19T23:15:43;15.10;;;3.10;;
4597;SDS011;62772;48.646;8.906;2023-11-19T23:20:43;10.80;;;3.47;;
4597;SDS011;62772;48.646;8.906;2023-11-19T23:25:44;8.80;;;2.53;;
4597;SDS011;62772;48.646;8.906;2023-11-19T23:30:44;10.43;;;2.60;;
4597;SDS011;62772;48.646;8.906;2023-11-19T23:35:45;11.60;;;2.53;;
4597;SDS011;62772;48.646;8.906;2023-11-19T23:40:45;10.43;;;3.40;;
4597;SDS011;62772;48.646;8.906;2023-11-19T23:45:46;10.83;;;2.87;;
4597;SDS011;62772;48.646;8.906;2023-11-19T23:50:47;10.47;;;3.30;;
4597;SDS011;62772;48.646;8.906;2023-11-19T23:55:48;14.97;;;2.50;;
